Hoogstraten, Belgium
Current Conditions -  °F | °C
As of 11:25 PM on Friday 24 Oct 2014 (Local Time) from EHGR Reporting Station
Moderate Rain Moderate Rain  
Wind Chill: 52°   Ceiling: 3400
Heat Index: 52°   Visibility: 3mi
Dew Point: 52°   Wind: 13mph
Humidity: 100%   Direction: 190°S
Pressure: 30"   Gusts: NA
Location:  51.4°N, 4.76°E
Report Text: EHGR 242125Z AUTO 19011KT 5000 RA FEW011 SCT030 BKN034 11/11 Q1016 WHT
Loading
Personal Weather Stations






























Interactive Weather Map
Tropical Storm Tracking
New forecast layout! Learn more

10-Day Weather Forecast

Advertisements
Track Severe Weather on mobile